createdAt,value
2017-10-29T00:00:34.740Z,11.2
2017-10-29T00:01:33.747Z,11.2
2017-10-29T00:02:33.125Z,11.2
2017-10-29T00:03:32.295Z,11.2
2017-10-29T00:04:31.296Z,11.2
2017-10-29T00:05:30.433Z,11.2
2017-10-29T00:06:29.713Z,11.2
2017-10-29T00:07:28.987Z,11.2
2017-10-29T00:08:28.125Z,11.1
2017-10-29T00:09:27.132Z,11.2
2017-10-29T00:10:26.141Z,11.2
2017-10-29T00:11:25.657Z,11.2
2017-10-29T00:12:24.577Z,11.2
2017-10-29T00:13:24.118Z,11.2
2017-10-29T00:14:22.750Z,11.2
2017-10-29T00:15:22.265Z,11.2
2017-10-29T00:16:21.546Z,11.3
2017-10-29T00:17:20.424Z,11.2
2017-10-29T00:18:19.697Z,11.2
2017-10-29T00:19:18.347Z,11.2
2017-10-29T00:20:18.001Z,11.1
2017-10-29T00:21:17.015Z,11.1
2017-10-29T00:22:16.033Z,11.1
2017-10-29T00:23:15.309Z,11.1
2017-10-29T00:24:14.322Z,11.1
2017-10-29T00:25:13.966Z,11.2
2017-10-29T00:26:12.744Z,11.2
2017-10-29T00:27:12.154Z,11.1
2017-10-29T00:28:10.939Z,11.2
2017-10-29T00:29:10.313Z,11.2
2017-10-29T00:30:09.192Z,11.2
2017-10-29T00:31:08.703Z,11.2
2017-10-29T00:31:39.301Z,11.2
2017-10-29T00:32:10.127Z,11.3
2017-10-29T00:33:07.021Z,11.2
2017-10-29T00:34:06.158Z,11.2
2017-10-29T00:35:05.560Z,11.3
2017-10-29T00:36:04.485Z,11.3
2017-10-29T00:37:03.626Z,11.3
2017-10-29T00:38:02.633Z,11.3
2017-10-29T00:39:02.145Z,11.3
2017-10-29T00:41:00.058Z,11.4
2017-10-29T00:41:59.071Z,11.3
2017-10-29T00:42:58.487Z,11.4
2017-10-29T00:43:57.630Z,11.3
2017-10-29T00:45:56.155Z,11.4
2017-10-29T00:46:55.293Z,11.4
2017-10-29T00:47:53.934Z,11.4
2017-10-29T00:49:52.454Z,11.4
2017-10-29T00:50:51.599Z,11.5
2017-10-29T00:51:50.886Z,11.5
2017-10-29T00:52:50.400Z,11.5
2017-10-29T00:53:49.040Z,11.5
2017-10-29T00:54:48.054Z,11.5
2017-10-29T00:55:47.729Z,11.5
2017-10-29T00:56:46.737Z,11.6
2017-10-29T00:57:45.754Z,11.6
2017-10-29T00:58:44.911Z,11.6
2017-10-29T00:59:44.054Z,11.6
2017-10-29T01:00:43.442Z,11.6
2017-10-29T01:01:42.582Z,11.7
2017-10-29T01:03:40.732Z,11.7
2017-10-29T01:04:40.004Z,11.7
2017-10-29T01:05:38.876Z,11.7
2017-10-29T01:06:38.388Z,11.7
2017-10-29T01:07:37.398Z,11.7
2017-10-29T01:08:36.672Z,11.8
2017-10-29T01:09:06.989Z,11.8
2017-10-29T01:09:37.441Z,11.7
2017-10-29T01:10:35.211Z,11.8
2017-10-29T01:11:34.099Z,11.8
2017-10-29T01:12:33.236Z,11.8
2017-10-29T01:13:32.115Z,11.8
2017-10-29T01:14:31.489Z,11.8
2017-10-29T01:15:30.868Z,11.8
2017-10-29T01:16:29.877Z,11.8
2017-10-29T01:17:28.888Z,11.9
2017-10-29T01:18:28.669Z,11.9
2017-10-29T01:19:27.305Z,11.9
2017-10-29T01:19:57.763Z,11.9
2017-10-29T01:20:28.081Z,11.9
2017-10-29T01:21:25.581Z,11.9
2017-10-29T01:22:24.955Z,11.9
2017-10-29T01:23:23.963Z,11.9
2017-10-29T01:24:23.112Z,11.9
2017-10-29T01:25:22.123Z,11.9
2017-10-29T01:26:21.772Z,11.9
2017-10-29T01:27:20.698Z,11.9
2017-10-29T01:29:19.091Z,11.9
2017-10-29T01:30:17.965Z,11.9
2017-10-29T01:31:17.551Z,11.9
2017-10-29T01:32:16.561Z,12
2017-10-29T01:33:15.838Z,12
2017-10-29T01:34:14.981Z,12
2017-10-29T01:35:14.370Z,12
2017-10-29T01:36:13.143Z,12
2017-10-29T01:37:12.158Z,12.1
2017-10-29T01:38:11.672Z,12.1
2017-10-29T01:39:10.693Z,12.1
2017-10-29T01:40:09.974Z,12.1
2017-10-29T01:41:08.985Z,12.1
2017-10-29T01:42:08.267Z,12.1
2017-10-29T01:43:07.410Z,12.2
2017-10-29T01:44:06.689Z,12.2
2017-10-29T01:45:05.822Z,12.1
2017-10-29T01:46:05.089Z,12.1
2017-10-29T01:47:04.368Z,12.1
2017-10-29T01:48:03.634Z,12.1
2017-10-29T01:49:02.501Z,12.1
2017-10-29T01:50:01.508Z,12.1
2017-10-29T01:51:01.152Z,12.1
2017-10-29T01:52:00.435Z,12.1
2017-10-29T01:52:59.206Z,12
2017-10-29T01:53:58.083Z,11.9
2017-10-29T01:54:57.726Z,11.9
2017-10-29T01:55:56.745Z,11.8
2017-10-29T01:56:55.886Z,11.8
2017-10-29T01:57:55.158Z,11.8
2017-10-29T01:58:54.428Z,11.7
2017-10-29T01:59:53.303Z,11.6
2017-10-29T02:00:52.813Z,11.6
2017-10-29T02:01:23.499Z,11.6
2017-10-29T02:01:54.119Z,11.7
2017-10-29T02:02:24.572Z,11.7
2017-10-29T02:03:50.021Z,11.7
2017-10-29T02:04:49.157Z,11.7
2017-10-29T02:05:48.671Z,11.7
2017-10-29T02:06:47.943Z,11.7
2017-10-29T02:07:46.959Z,11.7
2017-10-29T02:08:45.970Z,11.7
2017-10-29T02:09:44.985Z,11.7
2017-10-29T02:10:44.622Z,11.7
2017-10-29T02:11:43.760Z,11.7
2017-10-29T02:13:42.283Z,11.7
2017-10-29T02:14:40.928Z,11.8
2017-10-29T02:15:40.064Z,11.8
2017-10-29T02:16:39.577Z,11.9
2017-10-29T02:17:38.362Z,11.9
2017-10-29T02:18:37.871Z,11.9
2017-10-29T02:19:36.893Z,11.8
2017-10-29T02:20:36.031Z,11.9
2017-10-29T02:21:35.300Z,11.9
2017-10-29T02:22:34.174Z,11.8
2017-10-29T02:23:33.681Z,11.8
2017-10-29T02:24:32.725Z,11.8
2017-10-29T02:25:31.995Z,11.9
2017-10-29T02:26:31.002Z,11.9
2017-10-29T02:27:30.388Z,11.9
2017-10-29T02:28:29.666Z,11.9
2017-10-29T02:29:28.812Z,11.9
2017-10-29T02:30:28.000Z,11.8
2017-10-29T02:31:27.146Z,11.8
2017-10-29T02:32:26.423Z,11.8
2017-10-29T02:33:25.570Z,11.8
2017-10-29T02:34:24.585Z,11.8
2017-10-29T02:35:23.625Z,11.7
2017-10-29T02:36:23.026Z,11.7
2017-10-29T02:37:22.300Z,11.7
2017-10-29T02:38:21.441Z,11.6
2017-10-29T02:39:20.352Z,11.6
2017-10-29T02:40:19.500Z,11.6
2017-10-29T02:41:18.791Z,11.6
2017-10-29T02:42:17.794Z,11.6
2017-10-29T02:43:17.175Z,11.6
2017-10-29T02:44:16.366Z,11.7
2017-10-29T02:45:15.524Z,11.7
2017-10-29T02:46:14.398Z,11.8
2017-10-29T02:47:13.913Z,11.8
2017-10-29T02:48:13.324Z,11.8
2017-10-29T02:49:12.457Z,11.9
2017-10-29T02:50:11.472Z,11.9
2017-10-29T02:51:10.386Z,11.9
2017-10-29T02:52:09.525Z,12
2017-10-29T02:53:08.660Z,12
2017-10-29T02:54:08.173Z,12.1
2017-10-29T02:55:07.175Z,12.1
2017-10-29T02:56:06.445Z,12
2017-10-29T02:57:05.583Z,12.1
2017-10-29T02:58:04.586Z,12.1
2017-10-29T03:00:03.120Z,12.2
2017-10-29T03:01:01.873Z,12.2
2017-10-29T03:02:01.253Z,12.2
2017-10-29T03:03:00.529Z,12.2
2017-10-29T03:03:59.802Z,12.2
2017-10-29T03:06:57.077Z,12.2
2017-10-29T03:07:56.481Z,12.2
2017-10-29T03:08:55.480Z,12.3
2017-10-29T03:09:54.620Z,12.3
2017-10-29T03:10:53.913Z,12.3
2017-10-29T03:11:53.326Z,12.3
2017-10-29T03:12:52.613Z,12.4
2017-10-29T03:13:51.515Z,12.4
2017-10-29T03:14:50.806Z,12.4
2017-10-29T03:15:50.082Z,12.5
2017-10-29T03:16:49.088Z,12.4
2017-10-29T03:17:48.478Z,12.4
2017-10-29T03:18:47.514Z,12.4
2017-10-29T03:19:46.666Z,12.4
2017-10-29T03:20:45.540Z,12.3
2017-10-29T03:21:44.914Z,12.3
2017-10-29T03:22:44.343Z,12.3
2017-10-29T03:23:43.481Z,12.3
2017-10-29T03:24:42.615Z,12.2
2017-10-29T03:25:41.758Z,12.2
2017-10-29T03:26:40.904Z,12.2
2017-10-29T03:27:40.036Z,12.2
2017-10-29T03:28:39.314Z,12.2
2017-10-29T03:29:38.320Z,12.2
2017-10-29T03:30:37.973Z,12.2
2017-10-29T03:31:36.746Z,12.2
2017-10-29T03:32:35.882Z,12.2
2017-10-29T03:33:35.015Z,12.2
2017-10-29T03:34:34.286Z,12.2
2017-10-29T03:35:33.549Z,12.2
2017-10-29T03:36:32.577Z,12.1
2017-10-29T03:37:31.929Z,12.2
2017-10-29T03:38:02.545Z,12.2
2017-10-29T03:38:32.871Z,12.1
2017-10-29T03:39:03.193Z,12.1
2017-10-29T03:39:33.802Z,12.1
2017-10-29T03:40:03.750Z,12.1
2017-10-29T03:40:34.199Z,12.1
2017-10-29T03:41:04.784Z,12.1
2017-10-29T03:42:27.719Z,12
2017-10-29T03:43:26.983Z,12
2017-10-29T03:44:25.879Z,12
2017-10-29T03:45:25.388Z,11.9
2017-10-29T03:46:24.392Z,12
2017-10-29T03:47:23.534Z,11.9
2017-10-29T03:48:22.821Z,11.9
2017-10-29T03:49:22.228Z,11.9
2017-10-29T03:50:20.997Z,11.9
2017-10-29T03:51:20.266Z,11.9
2017-10-29T03:51:50.588Z,11.9
2017-10-29T03:52:20.900Z,11.9
2017-10-29T03:53:18.769Z,11.9
2017-10-29T03:54:17.774Z,11.9
2017-10-29T03:56:16.298Z,12
2017-10-29T03:57:15.306Z,12
2017-10-29T03:58:14.957Z,12
2017-10-29T03:59:13.717Z,12
2017-10-29T04:00:12.963Z,12
2017-10-29T04:01:12.241Z,11.9
2017-10-29T04:02:11.257Z,11.9
2017-10-29T04:03:10.418Z,11.9
2017-10-29T04:04:09.937Z,11.9
2017-10-29T04:05:08.950Z,11.9
2017-10-29T04:06:08.124Z,11.9
2017-10-29T04:07:07.268Z,12
2017-10-29T04:08:06.426Z,12
2017-10-29T04:09:05.706Z,12
2017-10-29T04:10:04.731Z,12
2017-10-29T04:11:03.748Z,12
2017-10-29T04:12:03.029Z,12.1
2017-10-29T04:13:02.413Z,12.2
2017-10-29T04:14:01.692Z,12.2
2017-10-29T04:15:00.835Z,12.2
2017-10-29T04:15:59.843Z,12.3
2017-10-29T04:16:58.990Z,12.3
2017-10-29T04:17:57.999Z,12.3
2017-10-29T04:18:57.672Z,12.4
2017-10-29T04:19:56.685Z,12.5
2017-10-29T04:20:55.849Z,12.5
2017-10-29T04:21:27.113Z,12.5
2017-10-29T04:21:57.203Z,12.5
2017-10-29T04:22:27.654Z,12.5
2017-10-29T04:24:52.590Z,12.4
2017-10-29T04:25:51.733Z,12.5
2017-10-29T04:26:51.007Z,12.5
2017-10-29T04:27:50.145Z,12.5
2017-10-29T04:28:49.150Z,12.5
2017-10-29T04:29:48.160Z,12.5
2017-10-29T04:30:47.574Z,12.6
2017-10-29T04:31:46.844Z,12.6
2017-10-29T04:32:45.740Z,12.5
2017-10-29T04:33:16.431Z,12.5
2017-10-29T04:33:46.789Z,12.5
2017-10-29T04:34:44.524Z,12.5
2017-10-29T04:35:43.658Z,12.5
2017-10-29T04:36:42.668Z,12.5
2017-10-29T04:37:41.938Z,12.5
2017-10-29T04:38:41.214Z,12.5
2017-10-29T04:39:40.219Z,12.4
2017-10-29T04:40:39.222Z,12.4
2017-10-29T04:41:38.742Z,12.3
2017-10-29T04:42:38.015Z,12.2
2017-10-29T04:43:36.779Z,12
2017-10-29T04:44:35.789Z,11.9
2017-10-29T04:45:35.157Z,11.8
2017-10-29T04:46:34.166Z,11.9
2017-10-29T04:47:33.570Z,11.8
2017-10-29T04:48:32.834Z,11.9
2017-10-29T04:49:31.839Z,11.8
2017-10-29T04:50:31.112Z,11.9
2017-10-29T04:51:30.253Z,11.9
2017-10-29T04:52:29.631Z,11.9
2017-10-29T04:53:28.633Z,11.9
2017-10-29T04:54:27.913Z,11.9
2017-10-29T04:55:27.050Z,11.9
2017-10-29T04:56:26.319Z,12
2017-10-29T04:57:25.583Z,12
2017-10-29T04:58:24.722Z,12
2017-10-29T04:59:23.851Z,12.1
2017-10-29T05:00:22.854Z,12.1
2017-10-29T05:01:22.259Z,12
2017-10-29T05:02:21.309Z,11.9
2017-10-29T05:03:20.312Z,11.5
2017-10-29T05:04:19.688Z,11
2017-10-29T05:05:19.224Z,10.8
2017-10-29T05:06:17.864Z,10.6
2017-10-29T05:07:17.368Z,10.5
2017-10-29T05:08:16.504Z,10.3
2017-10-29T05:10:14.902Z,10.2
2017-10-29T05:11:14.039Z,10.2
2017-10-29T05:12:13.046Z,10.3
2017-10-29T05:13:12.318Z,10.3
2017-10-29T05:14:11.202Z,10.4
2017-10-29T05:16:09.325Z,10.3
2017-10-29T05:17:08.834Z,10.4
2017-10-29T05:18:07.835Z,10.4
2017-10-29T05:19:07.118Z,10.4
2017-10-29T05:20:06.127Z,10.4
2017-10-29T05:21:05.634Z,10.3
2017-10-29T05:22:04.409Z,10.3
2017-10-29T05:23:03.548Z,10.4
2017-10-29T05:24:03.200Z,10.5
2017-10-29T05:25:02.475Z,10.5
2017-10-29T05:26:01.649Z,10.5
2017-10-29T05:27:00.793Z,10.5
2017-10-29T05:27:59.311Z,10.5
2017-10-29T05:28:58.690Z,10.6
2017-10-29T05:29:57.968Z,10.6
2017-10-29T05:30:57.111Z,10.6
2017-10-29T05:31:56.255Z,10.7
2017-10-29T05:33:54.541Z,10.8
2017-10-29T05:34:53.426Z,10.9
2017-10-29T05:35:52.697Z,10.9
2017-10-29T05:36:51.572Z,10.9
2017-10-29T05:37:50.845Z,10.9
2017-10-29T05:38:50.122Z,10.8
2017-10-29T05:39:49.266Z,10.8
2017-10-29T05:40:48.778Z,10.8
2017-10-29T05:41:47.541Z,10.8
2017-10-29T05:42:46.810Z,10.7
2017-10-29T05:43:46.082Z,10.7
2017-10-29T05:44:44.975Z,10.7
2017-10-29T05:45:44.247Z,10.7
2017-10-29T05:46:43.513Z,10.7
2017-10-29T05:47:42.655Z,10.7
2017-10-29T05:48:41.792Z,10.7
2017-10-29T05:49:40.939Z,10.6
2017-10-29T05:50:39.964Z,10.6
2017-10-29T05:51:38.984Z,10.6
2017-10-29T05:52:38.266Z,10.6
2017-10-29T05:53:37.531Z,10.5
2017-10-29T05:54:36.690Z,10.5
2017-10-29T05:55:35.691Z,10.5
2017-10-29T05:56:34.843Z,10.5
2017-10-29T05:57:33.856Z,10.4
2017-10-29T05:58:04.466Z,10.4
2017-10-29T05:58:35.185Z,10.4
2017-10-29T05:59:32.548Z,10.4
2017-10-29T06:00:31.691Z,10.4
2017-10-29T06:02:29.981Z,10.4
2017-10-29T06:03:28.991Z,10.4
2017-10-29T06:04:28.132Z,10.4
2017-10-29T06:05:27.275Z,10.4
2017-10-29T06:06:26.415Z,10.3
2017-10-29T06:07:25.686Z,10.3
2017-10-29T06:08:24.699Z,10.3
2017-10-29T06:08:55.423Z,10.3
2017-10-29T06:09:25.885Z,10.3
2017-10-29T06:09:56.080Z,10.3
2017-10-29T06:10:26.407Z,10.4
2017-10-29T06:11:22.407Z,10.4
2017-10-29T06:12:21.429Z,10.3
2017-10-29T06:13:20.531Z,10.3
2017-10-29T06:14:19.543Z,10.3
2017-10-29T06:15:18.694Z,10.2
2017-10-29T06:16:17.705Z,10.2
2017-10-29T06:17:17.241Z,10.2
2017-10-29T06:18:16.391Z,10.1
2017-10-29T06:19:15.304Z,10.2
2017-10-29T06:20:14.318Z,10.2
2017-10-29T06:21:13.589Z,10.2
2017-10-29T06:22:13.004Z,10.2
2017-10-29T06:23:11.772Z,10.2
2017-10-29T06:24:11.299Z,10.1
2017-10-29T06:25:10.435Z,10.2
2017-10-29T06:26:09.450Z,10.2
2017-10-29T06:27:08.724Z,10.2
2017-10-29T06:28:07.859Z,10.2
2017-10-29T06:29:06.510Z,10.2
2017-10-29T06:30:06.033Z,10.1
2017-10-29T06:33:03.436Z,10.2
2017-10-29T06:34:02.466Z,10.2
2017-10-29T06:35:01.593Z,10.1
2017-10-29T06:36:59.894Z,10.1
2017-10-29T06:37:59.168Z,10.2
2017-10-29T06:38:58.079Z,10.2
2017-10-29T06:39:57.077Z,10.2
2017-10-29T06:40:56.585Z,10.2
2017-10-29T06:41:55.862Z,10.2
2017-10-29T06:42:54.635Z,10.2
2017-10-29T06:43:53.651Z,10.2
2017-10-29T06:44:53.166Z,10.2
2017-10-29T06:45:51.932Z,10.2
2017-10-29T06:46:51.067Z,10.2
2017-10-29T06:47:50.209Z,10.3
2017-10-29T06:48:49.582Z,10.2
2017-10-29T06:49:48.732Z,10.2
2017-10-29T06:50:47.498Z,10.1
2017-10-29T06:51:18.215Z,10.1
2017-10-29T06:52:45.906Z,10.1
2017-10-29T06:53:45.410Z,10.1
2017-10-29T06:54:44.551Z,10.1
2017-10-29T06:55:43.573Z,10.1
2017-10-29T06:56:42.574Z,10.1
2017-10-29T06:57:41.953Z,10.2
2017-10-29T06:58:40.606Z,10.1
2017-10-29T06:59:39.981Z,10.2
2017-10-29T07:00:10.443Z,10.2
2017-10-29T07:00:40.635Z,10.2
2017-10-29T07:01:38.567Z,10.2
2017-10-29T07:02:37.330Z,10.2
2017-10-29T07:03:36.727Z,10.2
2017-10-29T07:04:35.864Z,10.2
2017-10-29T07:05:35.011Z,10.2
2017-10-29T07:06:33.790Z,10.2
2017-10-29T07:07:33.438Z,10.2
2017-10-29T07:09:31.602Z,10.2
2017-10-29T07:10:30.608Z,10.2
2017-10-29T07:11:29.874Z,10.3
2017-10-29T07:12:28.896Z,10.2
2017-10-29T07:13:28.412Z,10.2
2017-10-29T07:14:26.928Z,10.2
2017-10-29T07:15:26.480Z,10.3
2017-10-29T07:16:25.499Z,10.2
2017-10-29T07:17:24.655Z,10.3
2017-10-29T07:18:23.801Z,10.2
2017-10-29T07:19:22.548Z,10.3
2017-10-29T07:20:22.202Z,10.4
2017-10-29T07:21:21.083Z,10.3
2017-10-29T07:22:20.238Z,10.3
2017-10-29T07:23:19.383Z,10.3
2017-10-29T07:24:18.523Z,10.3
2017-10-29T07:25:17.659Z,10.3
2017-10-29T07:26:16.794Z,10.4
2017-10-29T07:27:16.044Z,10.3
2017-10-29T07:28:15.445Z,10.3
2017-10-29T07:29:14.318Z,10.3
2017-10-29T07:30:13.326Z,10.3
2017-10-29T07:31:12.338Z,10.3
2017-10-29T07:32:11.471Z,10.3
2017-10-29T07:33:10.742Z,10.3
2017-10-29T07:34:09.883Z,10.3
2017-10-29T07:35:09.300Z,10.3
2017-10-29T07:36:08.175Z,10.3
2017-10-29T07:37:07.050Z,10.4
2017-10-29T07:38:06.833Z,10.3
2017-10-29T07:39:05.352Z,10.3
2017-10-29T07:40:04.734Z,10.3
2017-10-29T07:41:03.893Z,10.3
2017-10-29T07:42:03.043Z,10.4
2017-10-29T07:43:02.047Z,10.4
2017-10-29T07:44:01.326Z,10.4
2017-10-29T07:45:00.464Z,10.4
2017-10-29T07:45:59.906Z,10.4
2017-10-29T07:46:59.174Z,10.4
2017-10-29T07:47:58.052Z,10.4
2017-10-29T07:48:57.184Z,10.5
2017-10-29T07:49:56.073Z,10.5
2017-10-29T07:50:55.340Z,10.4
2017-10-29T07:51:54.342Z,10.4
2017-10-29T07:52:53.485Z,10.4
2017-10-29T07:53:52.764Z,10.4
2017-10-29T07:55:50.822Z,10.5
2017-10-29T07:56:50.334Z,10.4
2017-10-29T07:57:49.477Z,10.4
2017-10-29T07:58:48.478Z,10.4
2017-10-29T07:59:47.482Z,10.4
2017-10-29T08:00:47.002Z,10.4
2017-10-29T08:01:46.141Z,10.5
2017-10-29T08:02:44.778Z,10.4
2017-10-29T08:03:44.295Z,10.5
2017-10-29T08:04:43.565Z,10.5
2017-10-29T08:05:42.834Z,10.5
2017-10-29T08:06:41.839Z,10.5
2017-10-29T08:07:40.477Z,10.5
2017-10-29T08:08:39.989Z,10.4
2017-10-29T08:09:38.875Z,10.5
2017-10-29T08:10:38.394Z,10.5
2017-10-29T08:11:37.163Z,10.6
2017-10-29T08:12:36.436Z,10.6
2017-10-29T08:13:35.741Z,10.6
2017-10-29T08:14:34.883Z,10.6
2017-10-29T08:15:34.020Z,10.6
2017-10-29T08:16:33.035Z,10.6
2017-10-29T08:17:32.434Z,10.6
2017-10-29T08:18:31.440Z,10.6
2017-10-29T08:19:30.315Z,10.6
2017-10-29T08:20:29.830Z,10.5
2017-10-29T08:21:29.101Z,10.5
2017-10-29T08:22:27.611Z,10.4
2017-10-29T08:23:26.992Z,10.3
2017-10-29T08:24:26.029Z,10.2
2017-10-29T08:25:25.427Z,10.2
2017-10-29T08:26:24.441Z,10.2
2017-10-29T08:27:23.307Z,10.2
2017-10-29T08:28:22.956Z,10.2
2017-10-29T08:29:21.958Z,10.2
2017-10-29T08:30:21.225Z,10.1
2017-10-29T08:31:19.987Z,10.1
2017-10-29T08:32:19.276Z,10.1
2017-10-29T08:33:18.551Z,10.1
2017-10-29T08:34:17.425Z,10.1
2017-10-29T08:35:16.710Z,10.1
2017-10-29T08:36:15.847Z,10.1
2017-10-29T08:37:14.992Z,10.1
2017-10-29T08:38:14.135Z,10.1
2017-10-29T08:39:13.546Z,10
2017-10-29T08:40:12.449Z,10
2017-10-29T08:41:11.604Z,9.9
2017-10-29T08:42:10.870Z,9.8
2017-10-29T08:43:09.883Z,9.8
2017-10-29T08:44:09.017Z,9.8
2017-10-29T08:45:08.288Z,9.7
2017-10-29T08:46:07.295Z,9.8
2017-10-29T08:47:06.301Z,9.8
2017-10-29T08:48:05.955Z,9.7
2017-10-29T08:49:04.736Z,9.7
2017-10-29T08:50:04.016Z,9.7
2017-10-29T08:51:03.175Z,9.7
2017-10-29T08:52:02.182Z,9.7
2017-10-29T08:53:01.096Z,9.7
2017-10-29T08:54:00.114Z,9.8
2017-10-29T08:55:58.906Z,9.8
2017-10-29T08:56:58.052Z,9.9
2017-10-29T08:57:57.200Z,9.9
2017-10-29T08:58:55.946Z,9.9
2017-10-29T08:59:55.326Z,10
2017-10-29T09:00:54.604Z,9.8
2017-10-29T09:01:53.882Z,9.6
2017-10-29T09:02:52.522Z,9.2
2017-10-29T09:03:51.530Z,8.7
2017-10-29T09:04:50.667Z,8.2
2017-10-29T09:05:49.942Z,8
2017-10-29T09:06:48.814Z,7.8
2017-10-29T09:07:48.601Z,7.8
2017-10-29T09:08:47.375Z,7.7
2017-10-29T09:09:46.256Z,7.6
2017-10-29T09:10:45.906Z,7.6
2017-10-29T09:11:44.673Z,7.6
2017-10-29T09:12:44.072Z,7.6
2017-10-29T09:13:43.211Z,7.7
2017-10-29T09:14:42.353Z,7.9
2017-10-29T09:15:41.486Z,7.9
2017-10-29T09:16:40.248Z,8.1
2017-10-29T09:17:39.492Z,8
2017-10-29T09:18:38.393Z,8.1
2017-10-29T09:19:37.904Z,8.2
2017-10-29T09:20:36.540Z,8.2
2017-10-29T09:21:36.337Z,8.2
2017-10-29T09:22:34.984Z,8.3
2017-10-29T09:23:34.242Z,8.3
2017-10-29T09:24:33.121Z,8.3
2017-10-29T09:25:32.636Z,8.3
2017-10-29T09:26:31.295Z,8.5
2017-10-29T09:27:30.832Z,8.5
2017-10-29T09:28:29.852Z,8.6
2017-10-29T09:29:29.124Z,8.6
2017-10-29T09:30:27.651Z,8.7
2017-10-29T09:31:27.167Z,8.8
2017-10-29T09:32:25.944Z,8.7
2017-10-29T09:33:25.078Z,8.8
2017-10-29T09:34:24.364Z,8.9
2017-10-29T09:35:23.270Z,8.9
2017-10-29T09:36:22.566Z,8.9
2017-10-29T09:37:21.715Z,9
2017-10-29T09:38:20.988Z,9
2017-10-29T09:39:19.996Z,9
2017-10-29T09:40:19.404Z,9.1
2017-10-29T09:41:18.038Z,9.1
2017-10-29T09:42:16.915Z,9.2
2017-10-29T09:43:16.569Z,9.2
2017-10-29T09:44:15.220Z,9.3
2017-10-29T09:45:14.863Z,9.3
2017-10-29T09:46:13.732Z,9.3
2017-10-29T09:47:12.873Z,9.4
2017-10-29T09:48:12.176Z,9.4
2017-10-29T09:49:11.146Z,9.4
2017-10-29T09:50:10.060Z,9.4
2017-10-29T09:51:09.201Z,9.4
2017-10-29T09:52:08.359Z,9.5
2017-10-29T09:53:07.494Z,9.5
2017-10-29T09:54:06.874Z,9.5
2017-10-29T09:55:06.144Z,9.5
2017-10-29T09:56:04.914Z,9.6
2017-10-29T09:57:04.058Z,9.7
2017-10-29T09:58:03.331Z,9.7
2017-10-29T09:59:02.474Z,9.8
2017-10-29T09:59:33.163Z,9.8
2017-10-29T10:00:03.617Z,9.8
2017-10-29T10:00:34.072Z,9.8
2017-10-29T10:01:59.745Z,9.9
2017-10-29T10:02:58.518Z,9.9
2017-10-29T10:03:57.525Z,9.9
2017-10-29T10:04:57.042Z,9.9
2017-10-29T10:05:56.441Z,9.9
2017-10-29T10:06:55.586Z,9.9
2017-10-29T10:07:54.484Z,9.9
2017-10-29T10:08:53.380Z,10
2017-10-29T10:09:52.252Z,10
2017-10-29T10:10:51.769Z,10
2017-10-29T10:11:50.781Z,10
2017-10-29T10:12:50.302Z,10.1
2017-10-29T10:13:48.950Z,10.1
2017-10-29T10:14:48.242Z,10.1
2017-10-29T10:15:47.386Z,10.1
2017-10-29T10:16:46.530Z,10.2
2017-10-29T10:17:16.723Z,10.2
2017-10-29T10:17:47.316Z,10.2
2017-10-29T10:18:17.647Z,10.2
2017-10-29T10:19:43.697Z,10.2
2017-10-29T10:20:42.716Z,10.2
2017-10-29T10:21:41.994Z,10.3
2017-10-29T10:22:41.136Z,10.3
2017-10-29T10:23:40.692Z,10.2
2017-10-29T10:24:39.835Z,10.3
2017-10-29T10:25:38.835Z,10.2
2017-10-29T10:27:36.957Z,10.3
2017-10-29T10:28:36.096Z,10.3
2017-10-29T10:29:35.382Z,10.3
2017-10-29T10:30:34.251Z,10.3
2017-10-29T10:31:33.498Z,10.3
2017-10-29T10:33:31.654Z,10.3
2017-10-29T10:34:30.926Z,10.3
2017-10-29T10:35:29.797Z,10.3
2017-10-29T10:36:29.301Z,10.4
2017-10-29T10:37:28.176Z,10.4
2017-10-29T10:38:27.581Z,10.4
2017-10-29T10:39:26.722Z,10.3
2017-10-29T10:40:25.492Z,10.3
2017-10-29T10:41:24.643Z,10.3
2017-10-29T10:42:23.790Z,10.3
2017-10-29T10:43:23.070Z,10.2
2017-10-29T10:44:21.843Z,10.2
2017-10-29T10:45:21.623Z,10.3
2017-10-29T10:46:20.405Z,10.3
2017-10-29T10:47:19.678Z,10.3
2017-10-29T10:48:18.693Z,10.4
2017-10-29T10:49:17.830Z,10.5
2017-10-29T10:50:16.985Z,10.4
2017-10-29T10:51:16.541Z,10.4
2017-10-29T10:52:15.558Z,10.3
2017-10-29T10:53:14.480Z,10.4
2017-10-29T10:54:13.617Z,10.4
2017-10-29T10:55:12.781Z,10.4
2017-10-29T10:56:11.931Z,10.3
2017-10-29T10:57:11.071Z,10.2
2017-10-29T10:58:10.493Z,10.3
2017-10-29T10:59:09.130Z,10.3
2017-10-29T10:59:39.591Z,10.3
2017-10-29T11:01:07.551Z,10.3
2017-10-29T11:02:06.689Z,10.2
2017-10-29T11:03:06.103Z,10.2
2017-10-29T11:04:04.885Z,10.2
2017-10-29T11:05:04.021Z,10.2
2017-10-29T11:06:03.031Z,10.2
2017-10-29T11:07:02.407Z,10.2
2017-10-29T11:08:01.839Z,10.2
2017-10-29T11:09:00.602Z,10.3
2017-10-29T11:09:59.476Z,10.4
2017-10-29T11:10:58.609Z,10.3
2017-10-29T11:11:58.265Z,10.3
2017-10-29T11:12:57.272Z,10.3
2017-10-29T11:13:56.149Z,10.3
2017-10-29T11:14:55.526Z,10.3
2017-10-29T11:15:54.658Z,10.4
2017-10-29T11:16:53.669Z,10.4
2017-10-29T11:17:52.942Z,10.3
2017-10-29T11:18:52.182Z,10.4
2017-10-29T11:19:51.451Z,10.4
2017-10-29T11:20:50.590Z,10.3
2017-10-29T11:21:49.595Z,10.3
2017-10-29T11:22:48.603Z,10.4
2017-10-29T11:23:47.617Z,10.4
2017-10-29T11:24:47.262Z,10.3
2017-10-29T11:25:46.135Z,10.4
2017-10-29T11:26:45.154Z,10.4
2017-10-29T11:27:44.167Z,10.3
2017-10-29T11:28:43.449Z,10.3
2017-10-29T11:29:42.592Z,10.3
2017-10-29T11:30:41.599Z,10.3
2017-10-29T11:31:40.744Z,10.2
2017-10-29T11:32:40.128Z,10.2
2017-10-29T11:33:39.143Z,10.2
2017-10-29T11:34:38.279Z,10.2
2017-10-29T11:35:08.736Z,10.2
2017-10-29T11:37:35.834Z,10.2
2017-10-29T11:38:34.972Z,10.2
2017-10-29T11:39:34.116Z,10.2
2017-10-29T11:40:33.262Z,10.3
2017-10-29T11:41:32.132Z,10.4
2017-10-29T11:42:31.651Z,10.4
2017-10-29T11:43:30.792Z,10.3
2017-10-29T11:44:29.760Z,10.4
2017-10-29T11:45:28.633Z,10.4
2017-10-29T11:47:27.159Z,10.5
2017-10-29T11:48:26.567Z,10.5
2017-10-29T11:49:25.210Z,10.4
2017-10-29T11:50:24.454Z,10.4
2017-10-29T11:51:23.841Z,10.4
2017-10-29T11:52:23.242Z,10.4
2017-10-29T11:54:21.008Z,10.4
2017-10-29T11:55:20.419Z,10.4
2017-10-29T11:56:19.858Z,10.5
2017-10-29T11:57:18.862Z,10.5
2017-10-29T11:58:17.881Z,10.5
2017-10-29T11:59:17.015Z,10.5
2017-10-29T12:00:16.015Z,10.4
2017-10-29T12:01:15.020Z,10.4
2017-10-29T12:02:14.026Z,10.4
2017-10-29T12:03:13.303Z,10.5
2017-10-29T12:04:12.944Z,10.4
2017-10-29T12:05:11.609Z,10.4
2017-10-29T12:06:10.898Z,10.4
2017-10-29T12:09:08.039Z,10.4
2017-10-29T12:10:07.418Z,10.4
2017-10-29T12:11:06.794Z,10.5
2017-10-29T12:13:04.821Z,10.5
2017-10-29T12:14:04.225Z,10.5
2017-10-29T12:15:03.240Z,10.5
2017-10-29T12:16:02.376Z,10.6
2017-10-29T12:17:01.509Z,10.5
2017-10-29T12:18:00.665Z,10.6
2017-10-29T12:18:59.804Z,10.6
2017-10-29T12:19:59.066Z,10.6
2017-10-29T12:20:58.346Z,10.6
2017-10-29T12:21:57.347Z,10.6
2017-10-29T12:22:56.352Z,10.6
2017-10-29T12:23:55.621Z,10.6
2017-10-29T12:24:54.493Z,10.6
2017-10-29T12:25:53.639Z,10.6
2017-10-29T12:26:53.542Z,10.6
2017-10-29T12:27:52.313Z,10.6
2017-10-29T12:28:51.459Z,10.6
2017-10-29T12:29:50.731Z,10.5
2017-10-29T12:30:49.379Z,10.5
2017-10-29T12:31:48.387Z,10.6
2017-10-29T12:32:47.671Z,10.5
2017-10-29T12:33:46.810Z,10.5
2017-10-29T12:34:46.320Z,10.5
2017-10-29T12:35:45.469Z,10.5
2017-10-29T12:36:44.340Z,10.6
2017-10-29T12:37:43.484Z,10.6
2017-10-29T12:38:42.886Z,10.6
2017-10-29T12:39:41.793Z,10.6
2017-10-29T12:40:40.940Z,10.6
2017-10-29T12:41:39.941Z,10.6
2017-10-29T12:42:39.448Z,10.6
2017-10-29T12:43:38.324Z,10.7
2017-10-29T12:44:37.833Z,10.6
2017-10-29T12:45:36.738Z,10.6
2017-10-29T12:46:36.009Z,10.5
2017-10-29T12:47:35.420Z,10.5
2017-10-29T12:48:34.225Z,10.6
2017-10-29T12:49:33.366Z,10.6
2017-10-29T12:50:32.517Z,10.6
2017-10-29T12:51:31.660Z,10.5
2017-10-29T12:52:30.535Z,10.5
2017-10-29T12:53:29.583Z,10.6
2017-10-29T12:54:29.114Z,10.5
2017-10-29T12:55:27.878Z,10.6
2017-10-29T12:56:27.384Z,10.6
2017-10-29T12:57:26.795Z,10.6
2017-10-29T12:58:25.454Z,10.6
2017-10-29T12:59:24.601Z,10.6
2017-10-29T13:00:24.116Z,10.6
2017-10-29T13:01:23.125Z,10.6
2017-10-29T13:02:22.410Z,10.6
2017-10-29T13:03:21.422Z,10.6
2017-10-29T13:04:20.705Z,10.6
2017-10-29T13:05:19.844Z,10.7
2017-10-29T13:06:18.594Z,10.8
2017-10-29T13:07:18.256Z,10.9
2017-10-29T13:08:17.160Z,11
2017-10-29T13:09:16.038Z,11
2017-10-29T13:10:15.549Z,10.9
2017-10-29T13:11:14.287Z,10.9
2017-10-29T13:12:13.458Z,10.8
2017-10-29T13:13:12.972Z,10.8
2017-10-29T13:14:11.972Z,10.7
2017-10-29T13:15:11.219Z,10.7
2017-10-29T13:16:10.227Z,10.7
2017-10-29T13:17:09.864Z,10.7
2017-10-29T13:19:07.894Z,10.8
2017-10-29T13:20:07.176Z,10.9
2017-10-29T13:21:06.219Z,11
2017-10-29T13:22:05.363Z,11
2017-10-29T13:23:04.508Z,11
2017-10-29T13:24:03.511Z,11
2017-10-29T13:25:02.518Z,11
2017-10-29T13:26:02.076Z,10.9
2017-10-29T13:27:01.077Z,10.9